Suffield, Connecticut
Current Conditions -  °F | °C
As of 4:51 AM on Monday 20 Oct 2014 (Local Time) from KBDL Reporting Station
Scattered Clouds Scattered Clouds  
Wind Chill: 30°   Ceiling: Unl
Heat Index: 35°   Visibility: 10mi
Dew Point: 28°   Wind: 6mph
Humidity: 76%   Direction: 230°SW
Pressure: 30.04"   Gusts: NA
Location:  41.98°N, 72.65°W
Report Text: KBDL 200851Z 23005KT 10SM SCT250 02/M02 A3004 RMK AO2 SLP174 T00171022 53006
Loading
Personal Weather Stations






























Interactive Weather Map
Tropical Storm Tracking
New forecast layout! Learn more

10-Day Weather Forecast

Advertisements
Track Severe Weather on mobile